sensor_id;sensor_type;location;lat;lon;timestamp;temperature;humidity
70321;DHT22;61127;55.826;37.046;2023-05-21T00:00:41;12.30;66.30
70321;DHT22;61127;55.826;37.046;2023-05-21T00:03:07;12.31;66.80
70321;DHT22;61127;55.826;37.046;2023-05-21T00:05:39;12.32;66.07
70321;DHT22;61127;55.826;37.046;2023-05-21T00:08:05;12.33;66.11
70321;DHT22;61127;55.826;37.046;2023-05-21T00:10:32;12.37;65.84
70321;DHT22;61127;55.826;37.046;2023-05-21T00:12:57;12.40;66.11
70321;DHT22;61127;55.826;37.046;2023-05-21T00:15:23;12.41;65.62
70321;DHT22;61127;55.826;37.046;2023-05-21T00:17:49;12.44;65.76
70321;DHT22;61127;55.826;37.046;2023-05-21T00:20:16;12.45;65.66
70321;DHT22;61127;55.826;37.046;2023-05-21T00:22:43;12.47;65.62
70321;DHT22;61127;55.826;37.046;2023-05-21T00:25:10;12.46;65.75
70321;DHT22;61127;55.826;37.046;2023-05-21T00:27:36;12.47;66.36
70321;DHT22;61127;55.826;37.046;2023-05-21T00:30:03;12.41;66.85
70321;DHT22;61127;55.826;37.046;2023-05-21T00:32:35;12.38;67.29
70321;DHT22;61127;55.826;37.046;2023-05-21T00:35:02;12.35;67.17
70321;DHT22;61127;55.826;37.046;2023-05-21T00:37:30;12.32;67.43
70321;DHT22;61127;55.826;37.046;2023-05-21T00:40:08;12.30;67.65
70321;DHT22;61127;55.826;37.046;2023-05-21T00:42:42;12.29;67.62
70321;DHT22;61127;55.826;37.046;2023-05-21T00:45:13;12.27;67.79
70321;DHT22;61127;55.826;37.046;2023-05-21T00:47:42;12.25;67.62
70321;DHT22;61127;55.826;37.046;2023-05-21T00:50:10;12.26;67.85
70321;DHT22;61127;55.826;37.046;2023-05-21T00:52:36;12.25;67.80
70321;DHT22;61127;55.826;37.046;2023-05-21T00:55:07;12.23;68.00
70321;DHT22;61127;55.826;37.046;2023-05-21T00:57:34;12.21;68.10
70321;DHT22;61127;55.826;37.046;2023-05-21T01:00:03;12.18;68.22
70321;DHT22;61127;55.826;37.046;2023-05-21T01:02:32;12.14;68.49
70321;DHT22;61127;55.826;37.046;2023-05-21T01:04:59;12.07;68.46
70321;DHT22;61127;55.826;37.046;2023-05-21T01:07:25;12.07;68.58
70321;DHT22;61127;55.826;37.046;2023-05-21T01:09:52;12.07;68.85
70321;DHT22;61127;55.826;37.046;2023-05-21T01:12:20;12.05;69.21
70321;DHT22;61127;55.826;37.046;2023-05-21T01:14:47;12.03;69.74
70321;DHT22;61127;55.826;37.046;2023-05-21T01:17:14;12.01;69.87
70321;DHT22;61127;55.826;37.046;2023-05-21T01:19:42;12.00;69.73
70321;DHT22;61127;55.826;37.046;2023-05-21T01:22:11;12.01;70.13
70321;DHT22;61127;55.826;37.046;2023-05-21T01:24:40;11.98;70.23
70321;DHT22;61127;55.826;37.046;2023-05-21T01:27:06;11.96;69.84
70321;DHT22;61127;55.826;37.046;2023-05-21T01:29:32;11.99;69.58
70321;DHT22;61127;55.826;37.046;2023-05-21T01:32:23;12.04;69.82
70321;DHT22;61127;55.826;37.046;2023-05-21T01:35:04;12.08;69.90
70321;DHT22;61127;55.826;37.046;2023-05-21T01:40:13;12.13;69.39
70321;DHT22;61127;55.826;37.046;2023-05-21T01:42:42;12.18;69.41
70321;DHT22;61127;55.826;37.046;2023-05-21T01:45:09;12.21;69.20
70321;DHT22;61127;55.826;37.046;2023-05-21T01:47:37;12.25;69.66
70321;DHT22;61127;55.826;37.046;2023-05-21T01:50:08;12.28;69.26
70321;DHT22;61127;55.826;37.046;2023-05-21T01:52:34;12.31;69.31
70321;DHT22;61127;55.826;37.046;2023-05-21T01:55:01;12.32;69.29
70321;DHT22;61127;55.826;37.046;2023-05-21T01:57:30;12.36;69.22
70321;DHT22;61127;55.826;37.046;2023-05-21T01:59:56;12.36;69.13
70321;DHT22;61127;55.826;37.046;2023-05-21T02:02:24;12.38;69.29
70321;DHT22;61127;55.826;37.046;2023-05-21T02:04:50;12.41;69.26
70321;DHT22;61127;55.826;37.046;2023-05-21T02:07:16;12.43;69.29
70321;DHT22;61127;55.826;37.046;2023-05-21T02:09:42;12.44;69.32
70321;DHT22;61127;55.826;37.046;2023-05-21T02:12:09;12.46;69.07
70321;DHT22;61127;55.826;37.046;2023-05-21T02:14:35;12.50;69.06
70321;DHT22;61127;55.826;37.046;2023-05-21T02:17:03;12.55;69.11
70321;DHT22;61127;55.826;37.046;2023-05-21T02:19:29;12.59;68.92
70321;DHT22;61127;55.826;37.046;2023-05-21T02:21:57;12.62;68.84
70321;DHT22;61127;55.826;37.046;2023-05-21T02:24:23;12.66;68.79
70321;DHT22;61127;55.826;37.046;2023-05-21T02:26:49;12.70;68.74
70321;DHT22;61127;55.826;37.046;2023-05-21T02:29:16;12.71;68.75
70321;DHT22;61127;55.826;37.046;2023-05-21T02:31:42;12.72;68.84
70321;DHT22;61127;55.826;37.046;2023-05-21T02:34:09;12.74;68.53
70321;DHT22;61127;55.826;37.046;2023-05-21T02:36:36;12.75;68.38
70321;DHT22;61127;55.826;37.046;2023-05-21T02:39:02;12.78;68.80
70321;DHT22;61127;55.826;37.046;2023-05-21T02:41:29;12.81;68.49
70321;DHT22;61127;55.826;37.046;2023-05-21T02:43:55;12.86;68.35
70321;DHT22;61127;55.826;37.046;2023-05-21T02:46:21;12.88;68.55
70321;DHT22;61127;55.826;37.046;2023-05-21T02:48:48;12.91;68.39
70321;DHT22;61127;55.826;37.046;2023-05-21T02:51:15;12.91;68.73
70321;DHT22;61127;55.826;37.046;2023-05-21T02:53:42;12.91;68.40
70321;DHT22;61127;55.826;37.046;2023-05-21T02:56:08;12.93;68.41
70321;DHT22;61127;55.826;37.046;2023-05-21T02:58:34;12.94;68.48
70321;DHT22;61127;55.826;37.046;2023-05-21T03:01:01;12.95;68.33
70321;DHT22;61127;55.826;37.046;2023-05-21T03:03:27;12.97;68.42
70321;DHT22;61127;55.826;37.046;2023-05-21T03:05:53;13.02;68.17
70321;DHT22;61127;55.826;37.046;2023-05-21T03:08:19;13.07;68.17
70321;DHT22;61127;55.826;37.046;2023-05-21T03:10:47;13.14;68.30
70321;DHT22;61127;55.826;37.046;2023-05-21T03:13:13;13.18;67.91
70321;DHT22;61127;55.826;37.046;2023-05-21T03:15:39;13.27;68.09
70321;DHT22;61127;55.826;37.046;2023-05-21T03:18:08;13.36;67.76
70321;DHT22;61127;55.826;37.046;2023-05-21T03:20:34;13.52;67.97
70321;DHT22;61127;55.826;37.046;2023-05-21T03:23:00;13.68;67.23
70321;DHT22;61127;55.826;37.046;2023-05-21T03:25:29;13.83;67.47
70321;DHT22;61127;55.826;37.046;2023-05-21T03:27:57;13.90;66.90
70321;DHT22;61127;55.826;37.046;2023-05-21T03:30:40;13.91;66.32
70321;DHT22;61127;55.826;37.046;2023-05-21T03:33:31;13.90;66.53
70321;DHT22;61127;55.826;37.046;2023-05-21T03:35:57;13.86;66.27
70321;DHT22;61127;55.826;37.046;2023-05-21T03:38:27;13.81;66.54
70321;DHT22;61127;55.826;37.046;2023-05-21T03:40:54;13.83;67.39
70321;DHT22;61127;55.826;37.046;2023-05-21T03:43:20;13.85;66.64
70321;DHT22;61127;55.826;37.046;2023-05-21T03:45:46;13.85;65.50
70321;DHT22;61127;55.826;37.046;2023-05-21T03:48:47;13.77;67.68
70321;DHT22;61127;55.826;37.046;2023-05-21T03:51:15;13.76;67.62
70321;DHT22;61127;55.826;37.046;2023-05-21T03:53:42;13.79;67.74
70321;DHT22;61127;55.826;37.046;2023-05-21T03:56:09;13.77;67.65
70321;DHT22;61127;55.826;37.046;2023-05-21T03:58:35;13.67;67.28
70321;DHT22;61127;55.826;37.046;2023-05-21T04:01:01;13.63;67.62
70321;DHT22;61127;55.826;37.046;2023-05-21T04:03:30;13.59;66.50
70321;DHT22;61127;55.826;37.046;2023-05-21T04:06:02;13.61;67.53
70321;DHT22;61127;55.826;37.046;2023-05-21T04:08:28;13.64;68.23
70321;DHT22;61127;55.826;37.046;2023-05-21T04:10:56;13.65;67.68
70321;DHT22;61127;55.826;37.046;2023-05-21T04:13:23;13.70;67.49
70321;DHT22;61127;55.826;37.046;2023-05-21T04:15:48;13.69;68.43
70321;DHT22;61127;55.826;37.046;2023-05-21T04:18:15;13.69;67.03
70321;DHT22;61127;55.826;37.046;2023-05-21T04:20:42;13.78;67.24
70321;DHT22;61127;55.826;37.046;2023-05-21T04:23:08;13.90;68.40
70321;DHT22;61127;55.826;37.046;2023-05-21T04:25:35;14.01;66.96
70321;DHT22;61127;55.826;37.046;2023-05-21T04:28:02;14.09;66.41
70321;DHT22;61127;55.826;37.046;2023-05-21T04:30:28;14.10;67.14
70321;DHT22;61127;55.826;37.046;2023-05-21T04:32:54;14.13;67.00
70321;DHT22;61127;55.826;37.046;2023-05-21T04:35:22;14.24;66.17
70321;DHT22;61127;55.826;37.046;2023-05-21T04:37:48;14.35;66.29
70321;DHT22;61127;55.826;37.046;2023-05-21T04:40:15;14.47;66.21
70321;DHT22;61127;55.826;37.046;2023-05-21T04:42:46;14.44;66.35
70321;DHT22;61127;55.826;37.046;2023-05-21T04:45:16;14.41;66.04
70321;DHT22;61127;55.826;37.046;2023-05-21T04:48:04;14.43;65.39
70321;DHT22;61127;55.826;37.046;2023-05-21T04:50:30;14.48;65.98
70321;DHT22;61127;55.826;37.046;2023-05-21T04:52:58;14.40;64.72
70321;DHT22;61127;55.826;37.046;2023-05-21T04:55:25;14.39;64.00
70321;DHT22;61127;55.826;37.046;2023-05-21T04:57:52;14.44;65.85
70321;DHT22;61127;55.826;37.046;2023-05-21T05:00:18;14.48;65.18
70321;DHT22;61127;55.826;37.046;2023-05-21T05:02:45;14.58;65.92
70321;DHT22;61127;55.826;37.046;2023-05-21T05:05:12;14.73;64.52
70321;DHT22;61127;55.826;37.046;2023-05-21T05:07:38;14.73;65.10
70321;DHT22;61127;55.826;37.046;2023-05-21T05:10:04;14.79;64.34
70321;DHT22;61127;55.826;37.046;2023-05-21T05:12:31;14.94;64.69
70321;DHT22;61127;55.826;37.046;2023-05-21T05:14:58;15.04;64.31
70321;DHT22;61127;55.826;37.046;2023-05-21T05:17:24;15.04;65.02
70321;DHT22;61127;55.826;37.046;2023-05-21T05:19:50;15.15;65.00
70321;DHT22;61127;55.826;37.046;2023-05-21T05:22:17;15.19;62.93
70321;DHT22;61127;55.826;37.046;2023-05-21T05:24:45;15.22;63.44
70321;DHT22;61127;55.826;37.046;2023-05-21T05:27:11;15.26;64.20
70321;DHT22;61127;55.826;37.046;2023-05-21T05:29:37;15.33;64.12
70321;DHT22;61127;55.826;37.046;2023-05-21T05:32:03;15.37;63.04
70321;DHT22;61127;55.826;37.046;2023-05-21T05:34:30;15.43;62.72
70321;DHT22;61127;55.826;37.046;2023-05-21T05:36:57;15.58;62.15
70321;DHT22;61127;55.826;37.046;2023-05-21T05:39:24;15.78;62.13
70321;DHT22;61127;55.826;37.046;2023-05-21T05:41:50;15.91;62.24
70321;DHT22;61127;55.826;37.046;2023-05-21T05:44:17;16.28;61.44
70321;DHT22;61127;55.826;37.046;2023-05-21T05:46:43;16.51;60.93
70321;DHT22;61127;55.826;37.046;2023-05-21T05:49:10;16.51;60.82
70321;DHT22;61127;55.826;37.046;2023-05-21T05:51:36;16.64;59.43
70321;DHT22;61127;55.826;37.046;2023-05-21T05:54:02;16.52;59.57
70321;DHT22;61127;55.826;37.046;2023-05-21T05:56:28;16.37;59.42
70321;DHT22;61127;55.826;37.046;2023-05-21T05:58:54;16.47;58.78
70321;DHT22;61127;55.826;37.046;2023-05-21T06:01:20;16.76;57.10
70321;DHT22;61127;55.826;37.046;2023-05-21T06:03:49;16.85;57.79
70321;DHT22;61127;55.826;37.046;2023-05-21T06:06:17;16.88;56.74
70321;DHT22;61127;55.826;37.046;2023-05-21T06:08:43;16.77;57.39
70321;DHT22;61127;55.826;37.046;2023-05-21T06:11:11;16.71;57.26
70321;DHT22;61127;55.826;37.046;2023-05-21T06:13:37;16.59;57.69
70321;DHT22;61127;55.826;37.046;2023-05-21T06:16:05;16.93;57.58
70321;DHT22;61127;55.826;37.046;2023-05-21T06:18:32;17.58;56.70
70321;DHT22;61127;55.826;37.046;2023-05-21T06:20:58;0.00;0.00
70321;DHT22;61127;55.826;37.046;2023-05-21T06:23:26;0.00;0.00
70321;DHT22;61127;55.826;37.046;2023-05-21T06:25:52;0.00;0.00
70321;DHT22;61127;55.826;37.046;2023-05-21T06:28:19;0.00;0.00
70321;DHT22;61127;55.826;37.046;2023-05-21T06:30:47;0.00;0.00
70321;DHT22;61127;55.826;37.046;2023-05-21T06:33:15;0.00;0.00
70321;DHT22;61127;55.826;37.046;2023-05-21T06:35:41;0.00;0.00
70321;DHT22;61127;55.826;37.046;2023-05-21T06:38:10;0.00;0.00
70321;DHT22;61127;55.826;37.046;2023-05-21T06:40:35;0.00;0.00
70321;DHT22;61127;55.826;37.046;2023-05-21T06:43:02;0.00;0.00
70321;DHT22;61127;55.826;37.046;2023-05-21T06:45:35;0.00;0.00
70321;DHT22;61127;55.826;37.046;2023-05-21T06:48:12;0.00;0.00
70321;DHT22;61127;55.826;37.046;2023-05-21T06:50:38;0.00;0.00
70321;DHT22;61127;55.826;37.046;2023-05-21T06:53:05;0.00;0.00
70321;DHT22;61127;55.826;37.046;2023-05-21T06:55:31;0.00;0.00
70321;DHT22;61127;55.826;37.046;2023-05-21T06:58:12;0.00;0.00
70321;DHT22;61127;55.826;37.046;2023-05-21T07:00:39;0.00;0.00
70321;DHT22;61127;55.826;37.046;2023-05-21T07:03:06;0.00;0.00
70321;DHT22;61127;55.826;37.046;2023-05-21T07:05:32;0.00;0.00
70321;DHT22;61127;55.826;37.046;2023-05-21T07:07:59;0.00;0.00
70321;DHT22;61127;55.826;37.046;2023-05-21T07:10:25;0.00;0.00
70321;DHT22;61127;55.826;37.046;2023-05-21T07:12:52;0.00;0.00
70321;DHT22;61127;55.826;37.046;2023-05-21T07:15:19;18.47;47.83
70321;DHT22;61127;55.826;37.046;2023-05-21T07:17:46;18.09;48.23
70321;DHT22;61127;55.826;37.046;2023-05-21T07:20:13;17.77;48.77
70321;DHT22;61127;55.826;37.046;2023-05-21T07:22:43;17.62;50.72
70321;DHT22;61127;55.826;37.046;2023-05-21T07:25:12;17.70;49.99
70321;DHT22;61127;55.826;37.046;2023-05-21T07:27:40;17.69;49.32
70321;DHT22;61127;55.826;37.046;2023-05-21T07:30:08;18.15;49.43
70321;DHT22;61127;55.826;37.046;2023-05-21T07:32:36;18.47;48.78
70321;DHT22;61127;55.826;37.046;2023-05-21T07:35:02;18.82;48.46
70321;DHT22;61127;55.826;37.046;2023-05-21T07:37:32;19.16;48.34
70321;DHT22;61127;55.826;37.046;2023-05-21T07:39:58;19.84;47.83
70321;DHT22;61127;55.826;37.046;2023-05-21T07:42:25;19.72;45.99
70321;DHT22;61127;55.826;37.046;2023-05-21T07:44:53;20.37;46.37
70321;DHT22;61127;55.826;37.046;2023-05-21T07:47:19;20.33;45.43
70321;DHT22;61127;55.826;37.046;2023-05-21T07:49:46;20.22;44.63
70321;DHT22;61127;55.826;37.046;2023-05-21T07:52:12;20.34;45.35
70321;DHT22;61127;55.826;37.046;2023-05-21T07:54:38;20.17;44.45
70321;DHT22;61127;55.826;37.046;2023-05-21T07:57:06;19.76;43.76
70321;DHT22;61127;55.826;37.046;2023-05-21T07:59:52;19.33;45.54
70321;DHT22;61127;55.826;37.046;2023-05-21T08:02:19;19.15;45.67
70321;DHT22;61127;55.826;37.046;2023-05-21T08:04:46;19.43;45.20
70321;DHT22;61127;55.826;37.046;2023-05-21T08:07:13;19.88;45.01
70321;DHT22;61127;55.826;37.046;2023-05-21T08:09:42;19.58;45.32
70321;DHT22;61127;55.826;37.046;2023-05-21T08:12:10;19.30;45.54
70321;DHT22;61127;55.826;37.046;2023-05-21T08:14:40;19.12;46.06
70321;DHT22;61127;55.826;37.046;2023-05-21T08:17:08;18.91;46.32
70321;DHT22;61127;55.826;37.046;2023-05-21T08:19:35;19.00;45.98
70321;DHT22;61127;55.826;37.046;2023-05-21T08:22:03;19.18;46.31
70321;DHT22;61127;55.826;37.046;2023-05-21T08:24:32;19.22;46.04
70321;DHT22;61127;55.826;37.046;2023-05-21T08:26:58;19.22;46.45
70321;DHT22;61127;55.826;37.046;2023-05-21T08:29:25;19.05;46.10
70321;DHT22;61127;55.826;37.046;2023-05-21T08:31:53;18.69;46.12
70321;DHT22;61127;55.826;37.046;2023-05-21T08:34:19;18.34;47.18
70321;DHT22;61127;55.826;37.046;2023-05-21T08:36:56;18.09;47.83
70321;DHT22;61127;55.826;37.046;2023-05-21T08:39:43;17.72;49.26
70321;DHT22;61127;55.826;37.046;2023-05-21T08:42:23;17.46;50.85
70321;DHT22;61127;55.826;37.046;2023-05-21T08:44:51;17.36;51.17
70321;DHT22;61127;55.826;37.046;2023-05-21T08:47:22;17.31;51.53
70321;DHT22;61127;55.826;37.046;2023-05-21T08:49:53;17.17;50.81
70321;DHT22;61127;55.826;37.046;2023-05-21T08:52:20;17.05;50.69
70321;DHT22;61127;55.826;37.046;2023-05-21T08:54:48;16.84;50.97
70321;DHT22;61127;55.826;37.046;2023-05-21T08:57:17;16.69;51.66
70321;DHT22;61127;55.826;37.046;2023-05-21T08:59:45;16.72;53.10
70321;DHT22;61127;55.826;37.046;2023-05-21T09:02:20;16.87;52.63
70321;DHT22;61127;55.826;37.046;2023-05-21T09:04:48;16.91;52.23
70321;DHT22;61127;55.826;37.046;2023-05-21T09:07:15;16.99;52.08
70321;DHT22;61127;55.826;37.046;2023-05-21T09:10:03;17.33;52.85
70321;DHT22;61127;55.826;37.046;2023-05-21T09:12:33;17.62;51.95
70321;DHT22;61127;55.826;37.046;2023-05-21T09:15:00;17.61;51.33
70321;DHT22;61127;55.826;37.046;2023-05-21T09:17:32;17.61;51.50
70321;DHT22;61127;55.826;37.046;2023-05-21T09:20:13;17.66;51.60
70321;DHT22;61127;55.826;37.046;2023-05-21T09:22:50;17.58;50.79
70321;DHT22;61127;55.826;37.046;2023-05-21T09:25:19;17.70;50.92
70321;DHT22;61127;55.826;37.046;2023-05-21T09:27:46;17.76;50.38
70321;DHT22;61127;55.826;37.046;2023-05-21T09:30:14;17.81;50.40
70321;DHT22;61127;55.826;37.046;2023-05-21T09:32:43;17.83;51.04
70321;DHT22;61127;55.826;37.046;2023-05-21T09:35:13;17.88;51.37
70321;DHT22;61127;55.826;37.046;2023-05-21T09:37:40;17.87;51.08
70321;DHT22;61127;55.826;37.046;2023-05-21T09:40:21;17.81;51.62
70321;DHT22;61127;55.826;37.046;2023-05-21T09:42:53;17.81;51.32
70321;DHT22;61127;55.826;37.046;2023-05-21T09:45:24;17.96;51.72
70321;DHT22;61127;55.826;37.046;2023-05-21T09:47:53;18.24;51.31
70321;DHT22;61127;55.826;37.046;2023-05-21T09:50:27;18.36;50.58
70321;DHT22;61127;55.826;37.046;2023-05-21T09:52:54;18.35;50.41
70321;DHT22;61127;55.826;37.046;2023-05-21T09:55:22;18.34;51.37
70321;DHT22;61127;55.826;37.046;2023-05-21T09:57:49;18.35;51.47
70321;DHT22;61127;55.826;37.046;2023-05-21T10:00:17;18.32;50.42
70321;DHT22;61127;55.826;37.046;2023-05-21T10:02:45;18.35;49.89
70321;DHT22;61127;55.826;37.046;2023-05-21T10:05:15;18.33;50.22
70321;DHT22;61127;55.826;37.046;2023-05-21T10:07:47;18.32;50.42
70321;DHT22;61127;55.826;37.046;2023-05-21T10:10:14;18.19;49.81
70321;DHT22;61127;55.826;37.046;2023-05-21T10:12:43;18.06;50.96
70321;DHT22;61127;55.826;37.046;2023-05-21T10:15:13;18.05;51.01
70321;DHT22;61127;55.826;37.046;2023-05-21T10:17:42;17.93;50.49
70321;DHT22;61127;55.826;37.046;2023-05-21T10:20:12;17.83;50.82
70321;DHT22;61127;55.826;37.046;2023-05-21T10:22:39;17.75;50.84
70321;DHT22;61127;55.826;37.046;2023-05-21T10:25:07;17.63;51.72
70321;DHT22;61127;55.826;37.046;2023-05-21T10:27:36;17.59;52.56
70321;DHT22;61127;55.826;37.046;2023-05-21T10:30:05;17.55;54.00
70321;DHT22;61127;55.826;37.046;2023-05-21T10:32:33;17.52;53.99
70321;DHT22;61127;55.826;37.046;2023-05-21T10:35:00;17.59;53.31
70321;DHT22;61127;55.826;37.046;2023-05-21T10:37:31;17.89;53.26
70321;DHT22;61127;55.826;37.046;2023-05-21T10:39:57;18.15;51.88
70321;DHT22;61127;55.826;37.046;2023-05-21T10:51:18;0.00;0.00
70321;DHT22;61127;55.826;37.046;2023-05-21T10:56:29;0.00;0.00
70321;DHT22;61127;55.826;37.046;2023-05-21T11:01:28;0.00;0.00
70321;DHT22;61127;55.826;37.046;2023-05-21T11:03:58;0.00;0.00
70321;DHT22;61127;55.826;37.046;2023-05-21T11:06:25;0.00;0.00
70321;DHT22;61127;55.826;37.046;2023-05-21T11:08:52;0.00;0.00
70321;DHT22;61127;55.826;37.046;2023-05-21T11:11:40;0.00;21.76
70321;DHT22;61127;55.826;37.046;2023-05-21T11:16:51;35.12;18.39
70321;DHT22;61127;55.826;37.046;2023-05-21T11:19:18;0.00;23.38
70321;DHT22;61127;55.826;37.046;2023-05-21T11:21:50;31.21;24.93
70321;DHT22;61127;55.826;37.046;2023-05-21T11:24:18;31.00;23.75
70321;DHT22;61127;55.826;37.046;2023-05-21T11:29:16;28.95;25.74
70321;DHT22;61127;55.826;37.046;2023-05-21T11:31:46;27.43;28.03
70321;DHT22;61127;55.826;37.046;2023-05-21T11:34:21;26.13;29.61
70321;DHT22;61127;55.826;37.046;2023-05-21T11:39:46;24.41;33.75
70321;DHT22;61127;55.826;37.046;2023-05-21T11:42:32;23.64;33.89
70321;DHT22;61127;55.826;37.046;2023-05-21T11:45:02;23.26;34.78
70321;DHT22;61127;55.826;37.046;2023-05-21T11:47:33;24.59;35.67
70321;DHT22;61127;55.826;37.046;2023-05-21T11:50:01;27.23;31.61
70321;DHT22;61127;55.826;37.046;2023-05-21T11:52:31;29.45;26.46
70321;DHT22;61127;55.826;37.046;2023-05-21T11:54:58;27.41;30.99
70321;DHT22;61127;55.826;37.046;2023-05-21T11:57:27;25.71;30.30
70321;DHT22;61127;55.826;37.046;2023-05-21T11:59:56;24.56;32.65
70321;DHT22;61127;55.826;37.046;2023-05-21T12:02:32;23.80;34.05
70321;DHT22;61127;55.826;37.046;2023-05-21T12:04:58;23.30;35.34
70321;DHT22;61127;55.826;37.046;2023-05-21T12:07:27;22.82;35.24
70321;DHT22;61127;55.826;37.046;2023-05-21T12:09:55;22.35;35.74
70321;DHT22;61127;55.826;37.046;2023-05-21T12:12:24;22.08;36.32
70321;DHT22;61127;55.826;37.046;2023-05-21T12:14:51;22.07;37.18
70321;DHT22;61127;55.826;37.046;2023-05-21T12:17:22;22.39;37.48
70321;DHT22;61127;55.826;37.046;2023-05-21T12:19:51;23.46;35.54
70321;DHT22;61127;55.826;37.046;2023-05-21T12:22:17;23.28;35.93
70321;DHT22;61127;55.826;37.046;2023-05-21T12:24:44;22.67;36.56
70321;DHT22;61127;55.826;37.046;2023-05-21T12:27:11;22.25;37.37
70321;DHT22;61127;55.826;37.046;2023-05-21T12:29:40;21.97;38.21
70321;DHT22;61127;55.826;37.046;2023-05-21T12:32:10;21.64;38.11
70321;DHT22;61127;55.826;37.046;2023-05-21T12:34:45;21.34;39.05
70321;DHT22;61127;55.826;37.046;2023-05-21T12:39:43;21.29;40.07
70321;DHT22;61127;55.826;37.046;2023-05-21T12:42:11;21.42;40.59
70321;DHT22;61127;55.826;37.046;2023-05-21T12:44:47;21.54;40.91
70321;DHT22;61127;55.826;37.046;2023-05-21T12:47:13;21.82;39.43
70321;DHT22;61127;55.826;37.046;2023-05-21T12:49:44;21.91;39.10
70321;DHT22;61127;55.826;37.046;2023-05-21T12:52:11;21.90;38.92
70321;DHT22;61127;55.826;37.046;2023-05-21T12:54:39;21.54;37.94
70321;DHT22;61127;55.826;37.046;2023-05-21T13:02:24;20.51;38.17
70321;DHT22;61127;55.826;37.046;2023-05-21T13:05:01;20.22;38.51
70321;DHT22;61127;55.826;37.046;2023-05-21T13:07:37;20.85;38.92
70321;DHT22;61127;55.826;37.046;2023-05-21T13:10:03;24.75;35.33
70321;DHT22;61127;55.826;37.046;2023-05-21T13:12:34;27.87;32.70
70321;DHT22;61127;55.826;37.046;2023-05-21T13:15:03;29.74;28.10
70321;DHT22;61127;55.826;37.046;2023-05-21T13:17:37;31.19;22.09
70321;DHT22;61127;55.826;37.046;2023-05-21T13:22:31;32.56;22.85
70321;DHT22;61127;55.826;37.046;2023-05-21T13:24:58;32.74;21.88
70321;DHT22;61127;55.826;37.046;2023-05-21T13:27:24;32.50;20.72
70321;DHT22;61127;55.826;37.046;2023-05-21T13:29:50;32.05;20.99
70321;DHT22;61127;55.826;37.046;2023-05-21T13:32:17;30.45;21.22
70321;DHT22;61127;55.826;37.046;2023-05-21T13:34:43;29.33;23.34
70321;DHT22;61127;55.826;37.046;2023-05-21T13:37:10;28.83;25.66
70321;DHT22;61127;55.826;37.046;2023-05-21T13:39:36;28.87;29.35
70321;DHT22;61127;55.826;37.046;2023-05-21T13:42:03;28.68;25.68
70321;DHT22;61127;55.826;37.046;2023-05-21T13:44:33;28.49;26.88
70321;DHT22;61127;55.826;37.046;2023-05-21T13:47:02;28.57;27.65
70321;DHT22;61127;55.826;37.046;2023-05-21T13:49:28;28.48;28.63
70321;DHT22;61127;55.826;37.046;2023-05-21T13:51:54;27.74;25.95
70321;DHT22;61127;55.826;37.046;2023-05-21T13:54:20;26.18;31.72
70321;DHT22;61127;55.826;37.046;2023-05-21T13:56:46;24.02;34.54
70321;DHT22;61127;55.826;37.046;2023-05-21T13:59:12;22.16;40.52
70321;DHT22;61127;55.826;37.046;2023-05-21T14:01:38;20.55;44.22
70321;DHT22;61127;55.826;37.046;2023-05-21T14:04:04;19.47;46.30
70321;DHT22;61127;55.826;37.046;2023-05-21T14:06:33;18.76;48.95
70321;DHT22;61127;55.826;37.046;2023-05-21T14:09:00;18.18;50.21
70321;DHT22;61127;55.826;37.046;2023-05-21T14:11:27;17.76;50.61
70321;DHT22;61127;55.826;37.046;2023-05-21T14:13:53;17.54;51.21
70321;DHT22;61127;55.826;37.046;2023-05-21T14:16:19;17.52;51.33
70321;DHT22;61127;55.826;37.046;2023-05-21T14:18:50;17.65;53.59
70321;DHT22;61127;55.826;37.046;2023-05-21T14:21:16;17.74;52.42
70321;DHT22;61127;55.826;37.046;2023-05-21T14:23:44;17.80;52.16
70321;DHT22;61127;55.826;37.046;2023-05-21T14:26:10;17.89;53.05
70321;DHT22;61127;55.826;37.046;2023-05-21T14:28:36;17.97;51.53
70321;DHT22;61127;55.826;37.046;2023-05-21T14:31:03;18.09;50.40
70321;DHT22;61127;55.826;37.046;2023-05-21T14:33:30;18.25;50.72
70321;DHT22;61127;55.826;37.046;2023-05-21T14:35:57;18.39;49.91
70321;DHT22;61127;55.826;37.046;2023-05-21T14:38:23;18.42;51.09
70321;DHT22;61127;55.826;37.046;2023-05-21T14:40:49;18.36;51.09
70321;DHT22;61127;55.826;37.046;2023-05-21T14:43:15;18.34;51.38
70321;DHT22;61127;55.826;37.046;2023-05-21T14:45:41;18.37;52.30
70321;DHT22;61127;55.826;37.046;2023-05-21T14:48:07;18.41;51.65
70321;DHT22;61127;55.826;37.046;2023-05-21T14:50:34;18.30;49.78
70321;DHT22;61127;55.826;37.046;2023-05-21T14:53:07;18.12;50.95
70321;DHT22;61127;55.826;37.046;2023-05-21T14:55:35;17.96;49.17
70321;DHT22;61127;55.826;37.046;2023-05-21T14:58:02;17.87;48.29
70321;DHT22;61127;55.826;37.046;2023-05-21T15:00:29;17.83;48.63
70321;DHT22;61127;55.826;37.046;2023-05-21T15:02:56;17.73;49.26
70321;DHT22;61127;55.826;37.046;2023-05-21T15:05:27;17.69;49.81
70321;DHT22;61127;55.826;37.046;2023-05-21T15:07:57;17.75;49.60
70321;DHT22;61127;55.826;37.046;2023-05-21T15:10:25;17.77;49.79
70321;DHT22;61127;55.826;37.046;2023-05-21T15:12:51;17.83;49.79
70321;DHT22;61127;55.826;37.046;2023-05-21T15:15:19;17.91;49.61
70321;DHT22;61127;55.826;37.046;2023-05-21T15:17:49;17.92;50.08
70321;DHT22;61127;55.826;37.046;2023-05-21T15:20:15;17.92;50.01
70321;DHT22;61127;55.826;37.046;2023-05-21T15:22:42;17.90;49.89
70321;DHT22;61127;55.826;37.046;2023-05-21T15:25:08;17.90;50.33
70321;DHT22;61127;55.826;37.046;2023-05-21T15:27:34;17.84;50.44
70321;DHT22;61127;55.826;37.046;2023-05-21T15:30:00;17.76;50.50
70321;DHT22;61127;55.826;37.046;2023-05-21T15:32:29;17.67;50.13
70321;DHT22;61127;55.826;37.046;2023-05-21T15:34:55;17.55;50.18
70321;DHT22;61127;55.826;37.046;2023-05-21T15:37:21;17.38;50.48
70321;DHT22;61127;55.826;37.046;2023-05-21T15:39:47;17.21;51.26
70321;DHT22;61127;55.826;37.046;2023-05-21T15:42:14;17.02;51.47
70321;DHT22;61127;55.826;37.046;2023-05-21T15:44:40;16.82;53.59
70321;DHT22;61127;55.826;37.046;2023-05-21T15:47:07;16.62;52.34
70321;DHT22;61127;55.826;37.046;2023-05-21T15:49:33;16.47;53.56
70321;DHT22;61127;55.826;37.046;2023-05-21T15:52:01;16.35;53.26
70321;DHT22;61127;55.826;37.046;2023-05-21T15:54:28;16.29;53.42
70321;DHT22;61127;55.826;37.046;2023-05-21T15:56:55;16.25;53.54
70321;DHT22;61127;55.826;37.046;2023-05-21T15:59:22;16.17;53.62